sensor_id;sensor_type;location;lat;lon;timestamp;P1;durP1;ratioP1;P2;durP2;ratioP2
5742;SDS011;2896;53.500;10.020;2022-09-13T00:01:08;4.43;;;4.13;;
5742;SDS011;2896;53.500;10.020;2022-09-13T00:03:35;4.87;;;4.60;;
5742;SDS011;2896;53.500;10.020;2022-09-13T00:06:12;5.10;;;4.80;;
5742;SDS011;2896;53.500;10.020;2022-09-13T00:08:40;4.93;;;4.53;;
5742;SDS011;2896;53.500;10.020;2022-09-13T00:11:12;6.40;;;5.90;;
5742;SDS011;2896;53.500;10.020;2022-09-13T00:13:42;5.40;;;5.10;;
5742;SDS011;2896;53.500;10.020;2022-09-13T00:16:10;5.50;;;5.10;;
5742;SDS011;2896;53.500;10.020;2022-09-13T00:18:38;7.93;;;5.47;;
5742;SDS011;2896;53.500;10.020;2022-09-13T00:21:05;4.80;;;4.60;;
5742;SDS011;2896;53.500;10.020;2022-09-13T00:23:34;4.47;;;4.17;;
5742;SDS011;2896;53.500;10.020;2022-09-13T00:26:02;4.77;;;4.40;;
5742;SDS011;2896;53.500;10.020;2022-09-13T00:28:34;8.30;;;5.40;;
5742;SDS011;2896;53.500;10.020;2022-09-13T00:31:02;5.47;;;5.07;;
5742;SDS011;2896;53.500;10.020;2022-09-13T00:33:30;6.57;;;4.90;;
5742;SDS011;2896;53.500;10.020;2022-09-13T00:35:57;6.63;;;5.17;;
5742;SDS011;2896;53.500;10.020;2022-09-13T00:38:24;4.77;;;4.37;;
5742;SDS011;2896;53.500;10.020;2022-09-13T00:40:50;4.50;;;4.30;;
5742;SDS011;2896;53.500;10.020;2022-09-13T00:43:18;5.93;;;4.87;;
5742;SDS011;2896;53.500;10.020;2022-09-13T00:45:48;5.13;;;4.83;;
5742;SDS011;2896;53.500;10.020;2022-09-13T00:48:16;5.43;;;5.00;;
5742;SDS011;2896;53.500;10.020;2022-09-13T00:50:46;6.07;;;5.30;;
5742;SDS011;2896;53.500;10.020;2022-09-13T00:53:19;9.03;;;5.77;;
5742;SDS011;2896;53.500;10.020;2022-09-13T00:55:51;5.87;;;5.43;;
5742;SDS011;2896;53.500;10.020;2022-09-13T00:58:22;5.57;;;5.00;;
5742;SDS011;2896;53.500;10.020;2022-09-13T01:00:54;5.60;;;5.20;;
5742;SDS011;2896;53.500;10.020;2022-09-13T01:03:24;7.70;;;5.80;;
5742;SDS011;2896;53.500;10.020;2022-09-13T01:05:54;9.23;;;7.37;;
5742;SDS011;2896;53.500;10.020;2022-09-13T01:08:24;9.83;;;5.97;;
5742;SDS011;2896;53.500;10.020;2022-09-13T01:10:55;11.47;;;6.77;;
5742;SDS011;2896;53.500;10.020;2022-09-13T01:13:24;6.57;;;6.00;;
5742;SDS011;2896;53.500;10.020;2022-09-13T01:15:55;10.33;;;6.60;;
5742;SDS011;2896;53.500;10.020;2022-09-13T01:18:22;7.60;;;6.40;;
5742;SDS011;2896;53.500;10.020;2022-09-13T01:20:57;15.83;;;7.50;;
5742;SDS011;2896;53.500;10.020;2022-09-13T01:23:52;10.03;;;7.33;;
5742;SDS011;2896;53.500;10.020;2022-09-13T01:26:42;7.33;;;6.63;;
5742;SDS011;2896;53.500;10.020;2022-09-13T01:29:27;6.97;;;6.33;;
5742;SDS011;2896;53.500;10.020;2022-09-13T01:32:27;7.13;;;6.27;;
5742;SDS011;2896;53.500;10.020;2022-09-13T01:35:07;6.07;;;5.57;;
5742;SDS011;2896;53.500;10.020;2022-09-13T01:37:47;6.77;;;6.17;;
5742;SDS011;2896;53.500;10.020;2022-09-13T01:40:23;8.00;;;7.20;;
5742;SDS011;2896;53.500;10.020;2022-09-13T01:43:03;9.60;;;6.43;;
5742;SDS011;2896;53.500;10.020;2022-09-13T01:45:43;8.13;;;7.23;;
5742;SDS011;2896;53.500;10.020;2022-09-13T01:48:20;7.30;;;6.70;;
5742;SDS011;2896;53.500;10.020;2022-09-13T01:50:57;6.80;;;6.20;;
5742;SDS011;2896;53.500;10.020;2022-09-13T01:53:30;7.90;;;6.20;;
5742;SDS011;2896;53.500;10.020;2022-09-13T01:56:01;6.57;;;6.07;;
5742;SDS011;2896;53.500;10.020;2022-09-13T01:58:36;6.60;;;6.10;;
5742;SDS011;2896;53.500;10.020;2022-09-13T02:01:10;7.77;;;6.67;;
5742;SDS011;2896;53.500;10.020;2022-09-13T02:03:44;12.33;;;7.63;;
5742;SDS011;2896;53.500;10.020;2022-09-13T02:06:18;13.13;;;7.60;;
5742;SDS011;2896;53.500;10.020;2022-09-13T02:08:48;6.93;;;6.33;;
5742;SDS011;2896;53.500;10.020;2022-09-13T02:11:19;7.53;;;6.83;;
5742;SDS011;2896;53.500;10.020;2022-09-13T02:13:49;8.90;;;7.13;;
5742;SDS011;2896;53.500;10.020;2022-09-13T02:16:24;9.33;;;8.40;;
5742;SDS011;2896;53.500;10.020;2022-09-13T02:18:56;9.07;;;8.10;;
5742;SDS011;2896;53.500;10.020;2022-09-13T02:21:25;7.97;;;7.07;;
5742;SDS011;2896;53.500;10.020;2022-09-13T02:23:57;9.40;;;7.60;;
5742;SDS011;2896;53.500;10.020;2022-09-13T02:26:27;8.33;;;7.50;;
5742;SDS011;2896;53.500;10.020;2022-09-13T02:28:56;7.30;;;6.60;;
5742;SDS011;2896;53.500;10.020;2022-09-13T02:31:27;7.03;;;6.50;;
5742;SDS011;2896;53.500;10.020;2022-09-13T02:34:00;8.13;;;7.33;;
5742;SDS011;2896;53.500;10.020;2022-09-13T02:36:34;8.40;;;7.50;;
5742;SDS011;2896;53.500;10.020;2022-09-13T02:39:05;7.37;;;6.67;;
5742;SDS011;2896;53.500;10.020;2022-09-13T02:41:36;8.37;;;7.53;;
5742;SDS011;2896;53.500;10.020;2022-09-13T02:44:09;7.23;;;6.67;;
5742;SDS011;2896;53.500;10.020;2022-09-13T02:46:45;8.73;;;6.87;;
5742;SDS011;2896;53.500;10.020;2022-09-13T02:49:23;8.03;;;7.30;;
5742;SDS011;2896;53.500;10.020;2022-09-13T02:51:56;11.53;;;7.67;;
5742;SDS011;2896;53.500;10.020;2022-09-13T02:54:34;7.53;;;6.90;;
5742;SDS011;2896;53.500;10.020;2022-09-13T02:57:05;7.27;;;6.67;;
5742;SDS011;2896;53.500;10.020;2022-09-13T02:59:35;8.63;;;7.83;;
5742;SDS011;2896;53.500;10.020;2022-09-13T03:02:03;8.90;;;8.10;;
5742;SDS011;2896;53.500;10.020;2022-09-13T03:04:34;8.20;;;7.50;;
5742;SDS011;2896;53.500;10.020;2022-09-13T03:07:04;8.13;;;7.33;;
5742;SDS011;2896;53.500;10.020;2022-09-13T03:09:37;8.77;;;7.97;;
5742;SDS011;2896;53.500;10.020;2022-09-13T03:12:22;10.67;;;8.47;;
5742;SDS011;2896;53.500;10.020;2022-09-13T03:15:04;8.40;;;7.50;;
5742;SDS011;2896;53.500;10.020;2022-09-13T03:17:40;8.50;;;7.70;;
5742;SDS011;2896;53.500;10.020;2022-09-13T03:20:16;9.63;;;8.60;;
5742;SDS011;2896;53.500;10.020;2022-09-13T03:22:53;9.30;;;8.37;;
5742;SDS011;2896;53.500;10.020;2022-09-13T03:25:36;9.60;;;8.80;;
5742;SDS011;2896;53.500;10.020;2022-09-13T03:28:22;9.10;;;8.23;;
5742;SDS011;2896;53.500;10.020;2022-09-13T03:30:59;9.00;;;8.10;;
5742;SDS011;2896;53.500;10.020;2022-09-13T03:33:33;9.53;;;8.63;;
5742;SDS011;2896;53.500;10.020;2022-09-13T03:36:12;12.73;;;10.47;;
5742;SDS011;2896;53.500;10.020;2022-09-13T03:38:44;10.83;;;9.73;;
5742;SDS011;2896;53.500;10.020;2022-09-13T03:41:18;11.13;;;9.93;;
5742;SDS011;2896;53.500;10.020;2022-09-13T03:43:50;12.33;;;10.27;;
5742;SDS011;2896;53.500;10.020;2022-09-13T03:46:21;14.57;;;12.77;;
5742;SDS011;2896;53.500;10.020;2022-09-13T03:48:53;16.27;;;12.87;;
5742;SDS011;2896;53.500;10.020;2022-09-13T03:51:23;13.00;;;11.23;;
5742;SDS011;2896;53.500;10.020;2022-09-13T03:53:52;12.93;;;11.47;;
5742;SDS011;2896;53.500;10.020;2022-09-13T03:56:22;17.07;;;13.10;;
5742;SDS011;2896;53.500;10.020;2022-09-13T03:58:49;22.60;;;15.00;;
5742;SDS011;2896;53.500;10.020;2022-09-13T04:01:17;15.70;;;13.43;;
5742;SDS011;2896;53.500;10.020;2022-09-13T04:03:47;18.23;;;14.50;;
5742;SDS011;2896;53.500;10.020;2022-09-13T04:06:15;21.03;;;15.50;;
5742;SDS011;2896;53.500;10.020;2022-09-13T04:08:43;14.53;;;12.60;;
5742;SDS011;2896;53.500;10.020;2022-09-13T04:11:10;12.73;;;11.40;;
5742;SDS011;2896;53.500;10.020;2022-09-13T04:13:38;13.77;;;11.00;;
5742;SDS011;2896;53.500;10.020;2022-09-13T04:16:06;13.03;;;11.07;;
5742;SDS011;2896;53.500;10.020;2022-09-13T04:18:36;12.57;;;11.23;;
5742;SDS011;2896;53.500;10.020;2022-09-13T04:21:03;13.93;;;12.20;;
5742;SDS011;2896;53.500;10.020;2022-09-13T04:23:31;18.60;;;14.33;;
5742;SDS011;2896;53.500;10.020;2022-09-13T04:26:03;13.83;;;11.80;;
5742;SDS011;2896;53.500;10.020;2022-09-13T04:28:35;14.60;;;12.63;;
5742;SDS011;2896;53.500;10.020;2022-09-13T04:34:38;23.57;;;15.60;;
5742;SDS011;2896;53.500;10.020;2022-09-13T04:37:05;23.37;;;16.43;;
5742;SDS011;2896;53.500;10.020;2022-09-13T04:39:33;19.00;;;13.60;;
5742;SDS011;2896;53.500;10.020;2022-09-13T04:42:04;25.00;;;16.40;;
5742;SDS011;2896;53.500;10.020;2022-09-13T04:44:50;26.70;;;17.83;;
5742;SDS011;2896;53.500;10.020;2022-09-13T04:47:16;24.70;;;15.90;;
5742;SDS011;2896;53.500;10.020;2022-09-13T04:49:43;35.67;;;20.30;;
5742;SDS011;2896;53.500;10.020;2022-09-13T04:52:10;37.40;;;19.90;;
5742;SDS011;2896;53.500;10.020;2022-09-13T04:54:36;35.33;;;22.07;;
5742;SDS011;2896;53.500;10.020;2022-09-13T04:57:03;32.73;;;20.70;;
5742;SDS011;2896;53.500;10.020;2022-09-13T04:59:30;30.93;;;20.33;;
5742;SDS011;2896;53.500;10.020;2022-09-13T05:01:58;43.30;;;23.13;;
5742;SDS011;2896;53.500;10.020;2022-09-13T05:04:25;31.03;;;19.57;;
5742;SDS011;2896;53.500;10.020;2022-09-13T05:06:51;25.57;;;19.10;;
5742;SDS011;2896;53.500;10.020;2022-09-13T05:09:18;33.03;;;23.70;;
5742;SDS011;2896;53.500;10.020;2022-09-13T05:11:44;31.30;;;21.83;;
5742;SDS011;2896;53.500;10.020;2022-09-13T05:14:11;45.60;;;24.47;;
5742;SDS011;2896;53.500;10.020;2022-09-13T05:16:38;39.57;;;22.13;;
5742;SDS011;2896;53.500;10.020;2022-09-13T05:19:06;31.33;;;21.23;;
5742;SDS011;2896;53.500;10.020;2022-09-13T05:21:33;33.20;;;21.90;;
5742;SDS011;2896;53.500;10.020;2022-09-13T05:24:00;41.33;;;25.57;;
5742;SDS011;2896;53.500;10.020;2022-09-13T05:26:28;49.23;;;23.97;;
5742;SDS011;2896;53.500;10.020;2022-09-13T05:28:55;37.60;;;24.87;;
5742;SDS011;2896;53.500;10.020;2022-09-13T05:31:23;51.73;;;25.03;;
5742;SDS011;2896;53.500;10.020;2022-09-13T05:33:52;40.60;;;26.23;;
5742;SDS011;2896;53.500;10.020;2022-09-13T05:36:22;39.70;;;26.10;;
5742;SDS011;2896;53.500;10.020;2022-09-13T05:38:48;44.47;;;26.37;;
5742;SDS011;2896;53.500;10.020;2022-09-13T05:41:16;36.97;;;25.20;;
5742;SDS011;2896;53.500;10.020;2022-09-13T05:43:43;41.03;;;26.77;;
5742;SDS011;2896;53.500;10.020;2022-09-13T05:46:10;42.57;;;25.00;;
5742;SDS011;2896;53.500;10.020;2022-09-13T05:48:39;36.00;;;25.33;;
5742;SDS011;2896;53.500;10.020;2022-09-13T05:51:07;48.40;;;29.90;;
5742;SDS011;2896;53.500;10.020;2022-09-13T05:53:36;46.77;;;27.23;;
5742;SDS011;2896;53.500;10.020;2022-09-13T05:56:05;39.47;;;24.50;;
5742;SDS011;2896;53.500;10.020;2022-09-13T05:58:32;39.53;;;25.77;;
5742;SDS011;2896;53.500;10.020;2022-09-13T06:00:59;43.13;;;27.30;;
5742;SDS011;2896;53.500;10.020;2022-09-13T06:03:26;37.83;;;25.53;;
5742;SDS011;2896;53.500;10.020;2022-09-13T06:05:56;45.30;;;26.20;;
5742;SDS011;2896;53.500;10.020;2022-09-13T06:08:23;45.87;;;25.57;;
5742;SDS011;2896;53.500;10.020;2022-09-13T06:10:54;41.33;;;24.10;;
5742;SDS011;2896;53.500;10.020;2022-09-13T06:13:22;35.30;;;21.63;;
5742;SDS011;2896;53.500;10.020;2022-09-13T06:15:49;40.83;;;25.07;;
5742;SDS011;2896;53.500;10.020;2022-09-13T06:18:16;32.33;;;21.83;;
5742;SDS011;2896;53.500;10.020;2022-09-13T06:20:43;36.40;;;23.20;;
5742;SDS011;2896;53.500;10.020;2022-09-13T06:23:10;37.27;;;23.93;;
5742;SDS011;2896;53.500;10.020;2022-09-13T06:25:37;45.03;;;23.30;;
5742;SDS011;2896;53.500;10.020;2022-09-13T06:28:05;36.07;;;24.77;;
5742;SDS011;2896;53.500;10.020;2022-09-13T06:30:32;38.60;;;24.23;;
5742;SDS011;2896;53.500;10.020;2022-09-13T06:32:58;38.80;;;24.60;;
5742;SDS011;2896;53.500;10.020;2022-09-13T06:35:25;44.43;;;25.37;;
5742;SDS011;2896;53.500;10.020;2022-09-13T06:37:53;37.67;;;24.37;;
5742;SDS011;2896;53.500;10.020;2022-09-13T06:40:20;38.13;;;22.97;;
5742;SDS011;2896;53.500;10.020;2022-09-13T06:42:47;40.90;;;21.63;;
5742;SDS011;2896;53.500;10.020;2022-09-13T06:45:16;43.87;;;24.60;;
5742;SDS011;2896;53.500;10.020;2022-09-13T06:47:43;32.97;;;22.73;;
5742;SDS011;2896;53.500;10.020;2022-09-13T06:50:09;37.07;;;23.40;;
5742;SDS011;2896;53.500;10.020;2022-09-13T06:52:37;34.80;;;22.50;;
5742;SDS011;2896;53.500;10.020;2022-09-13T06:55:04;44.47;;;25.20;;
5742;SDS011;2896;53.500;10.020;2022-09-13T06:57:31;37.03;;;22.03;;
5742;SDS011;2896;53.500;10.020;2022-09-13T06:59:58;32.93;;;21.03;;
5742;SDS011;2896;53.500;10.020;2022-09-13T07:02:25;30.37;;;19.53;;
5742;SDS011;2896;53.500;10.020;2022-09-13T07:04:52;37.00;;;18.83;;
5742;SDS011;2896;53.500;10.020;2022-09-13T07:07:19;33.20;;;19.27;;
5742;SDS011;2896;53.500;10.020;2022-09-13T07:09:45;37.03;;;19.07;;
5742;SDS011;2896;53.500;10.020;2022-09-13T07:12:12;29.57;;;19.10;;
5742;SDS011;2896;53.500;10.020;2022-09-13T07:14:39;32.37;;;18.73;;
5742;SDS011;2896;53.500;10.020;2022-09-13T07:17:05;28.90;;;16.40;;
5742;SDS011;2896;53.500;10.020;2022-09-13T07:19:33;25.63;;;16.37;;
5742;SDS011;2896;53.500;10.020;2022-09-13T07:22:00;27.47;;;17.60;;
5742;SDS011;2896;53.500;10.020;2022-09-13T07:24:27;29.60;;;16.40;;
5742;SDS011;2896;53.500;10.020;2022-09-13T07:26:53;26.07;;;15.90;;
5742;SDS011;2896;53.500;10.020;2022-09-13T07:29:20;29.13;;;16.03;;
5742;SDS011;2896;53.500;10.020;2022-09-13T07:31:48;30.23;;;16.13;;
5742;SDS011;2896;53.500;10.020;2022-09-13T07:34:16;26.13;;;15.03;;
5742;SDS011;2896;53.500;10.020;2022-09-13T07:36:46;24.10;;;15.23;;
5742;SDS011;2896;53.500;10.020;2022-09-13T07:39:13;27.53;;;15.80;;
5742;SDS011;2896;53.500;10.020;2022-09-13T07:41:40;21.20;;;13.77;;
5742;SDS011;2896;53.500;10.020;2022-09-13T07:44:08;25.73;;;14.00;;
5742;SDS011;2896;53.500;10.020;2022-09-13T07:46:35;27.13;;;16.00;;
5742;SDS011;2896;53.500;10.020;2022-09-13T07:49:04;24.80;;;15.40;;
5742;SDS011;2896;53.500;10.020;2022-09-13T07:51:31;26.30;;;13.30;;
5742;SDS011;2896;53.500;10.020;2022-09-13T07:54:01;26.97;;;12.40;;
5742;SDS011;2896;53.500;10.020;2022-09-13T07:56:30;17.10;;;12.90;;
5742;SDS011;2896;53.500;10.020;2022-09-13T07:58:58;25.40;;;14.50;;
5742;SDS011;2896;53.500;10.020;2022-09-13T08:01:26;21.13;;;13.27;;
5742;SDS011;2896;53.500;10.020;2022-09-13T08:03:54;32.43;;;13.30;;
5742;SDS011;2896;53.500;10.020;2022-09-13T08:06:23;40.23;;;14.47;;
5742;SDS011;2896;53.500;10.020;2022-09-13T08:08:51;31.00;;;12.80;;
5742;SDS011;2896;53.500;10.020;2022-09-13T08:11:20;18.37;;;11.10;;
5742;SDS011;2896;53.500;10.020;2022-09-13T08:13:48;30.73;;;12.80;;
5742;SDS011;2896;53.500;10.020;2022-09-13T08:16:16;17.27;;;9.23;;
5742;SDS011;2896;53.500;10.020;2022-09-13T08:18:44;26.23;;;9.40;;
5742;SDS011;2896;53.500;10.020;2022-09-13T08:21:11;19.00;;;8.77;;
5742;SDS011;2896;53.500;10.020;2022-09-13T08:23:38;11.03;;;7.07;;
5742;SDS011;2896;53.500;10.020;2022-09-13T08:26:05;16.50;;;8.77;;
5742;SDS011;2896;53.500;10.020;2022-09-13T08:28:34;22.77;;;8.83;;
5742;SDS011;2896;53.500;10.020;2022-09-13T08:31:02;12.97;;;7.53;;
5742;SDS011;2896;53.500;10.020;2022-09-13T08:33:29;11.87;;;7.63;;
5742;SDS011;2896;53.500;10.020;2022-09-13T08:35:56;26.80;;;6.70;;
5742;SDS011;2896;53.500;10.020;2022-09-13T08:38:23;7.60;;;5.80;;
5742;SDS011;2896;53.500;10.020;2022-09-13T08:40:50;11.90;;;5.77;;
5742;SDS011;2896;53.500;10.020;2022-09-13T08:43:21;12.03;;;6.80;;
5742;SDS011;2896;53.500;10.020;2022-09-13T08:45:58;15.07;;;6.40;;
5742;SDS011;2896;53.500;10.020;2022-09-13T08:48:31;15.10;;;6.10;;
5742;SDS011;2896;53.500;10.020;2022-09-13T08:51:02;13.00;;;6.30;;
5742;SDS011;2896;53.500;10.020;2022-09-13T08:53:31;22.03;;;6.23;;
5742;SDS011;2896;53.500;10.020;2022-09-13T08:56:06;11.47;;;5.80;;
5742;SDS011;2896;53.500;10.020;2022-09-13T09:01:40;15.73;;;6.03;;
5742;SDS011;2896;53.500;10.020;2022-09-13T09:04:19;13.80;;;5.60;;
5742;SDS011;2896;53.500;10.020;2022-09-13T09:07:00;10.07;;;3.87;;
5742;SDS011;2896;53.500;10.020;2022-09-13T09:09:31;26.60;;;5.57;;
5742;SDS011;2896;53.500;10.020;2022-09-13T09:12:03;16.07;;;4.30;;
5742;SDS011;2896;53.500;10.020;2022-09-13T09:14:37;18.20;;;4.10;;
5742;SDS011;2896;53.500;10.020;2022-09-13T09:17:11;7.30;;;3.40;;
5742;SDS011;2896;53.500;10.020;2022-09-13T09:19:42;6.80;;;2.70;;
5742;SDS011;2896;53.500;10.020;2022-09-13T09:22:12;5.40;;;2.50;;
5742;SDS011;2896;53.500;10.020;2022-09-13T09:24:43;7.73;;;2.13;;
5742;SDS011;2896;53.500;10.020;2022-09-13T09:27:13;15.33;;;2.40;;
5742;SDS011;2896;53.500;10.020;2022-09-13T09:29:41;17.03;;;3.30;;
5742;SDS011;2896;53.500;10.020;2022-09-13T09:32:13;6.60;;;2.67;;
5742;SDS011;2896;53.500;10.020;2022-09-13T09:34:51;8.53;;;2.43;;
5742;SDS011;2896;53.500;10.020;2022-09-13T09:37:25;9.80;;;2.00;;
5742;SDS011;2896;53.500;10.020;2022-09-13T09:39:57;16.27;;;1.77;;
5742;SDS011;2896;53.500;10.020;2022-09-13T09:42:28;13.70;;;2.30;;
5742;SDS011;2896;53.500;10.020;2022-09-13T09:44:58;11.63;;;1.33;;
5742;SDS011;2896;53.500;10.020;2022-09-13T09:47:31;8.07;;;2.30;;
5742;SDS011;2896;53.500;10.020;2022-09-13T09:50:06;18.03;;;2.17;;
5742;SDS011;2896;53.500;10.020;2022-09-13T09:52:37;8.90;;;1.90;;
5742;SDS011;2896;53.500;10.020;2022-09-13T09:55:20;6.60;;;1.50;;
5742;SDS011;2896;53.500;10.020;2022-09-13T09:57:52;5.60;;;1.50;;
5742;SDS011;2896;53.500;10.020;2022-09-13T10:00:21;8.43;;;1.30;;
5742;SDS011;2896;53.500;10.020;2022-09-13T10:02:52;3.17;;;1.43;;
5742;SDS011;2896;53.500;10.020;2022-09-13T10:05:21;9.37;;;1.50;;
5742;SDS011;2896;53.500;10.020;2022-09-13T10:07:53;8.33;;;1.67;;
5742;SDS011;2896;53.500;10.020;2022-09-13T10:10:25;10.33;;;1.57;;
5742;SDS011;2896;53.500;10.020;2022-09-13T10:12:58;5.70;;;1.87;;
5742;SDS011;2896;53.500;10.020;2022-09-13T10:15:26;11.33;;;1.70;;
5742;SDS011;2896;53.500;10.020;2022-09-13T10:18:04;8.27;;;1.93;;
5742;SDS011;2896;53.500;10.020;2022-09-13T10:20:38;9.07;;;2.50;;
5742;SDS011;2896;53.500;10.020;2022-09-13T10:23:09;8.63;;;2.13;;
5742;SDS011;2896;53.500;10.020;2022-09-13T10:25:42;9.83;;;1.60;;
5742;SDS011;2896;53.500;10.020;2022-09-13T10:28:12;8.87;;;1.80;;
5742;SDS011;2896;53.500;10.020;2022-09-13T10:30:42;9.83;;;1.40;;
5742;SDS011;2896;53.500;10.020;2022-09-13T10:33:20;8.80;;;2.00;;
5742;SDS011;2896;53.500;10.020;2022-09-13T10:35:52;8.90;;;1.80;;
5742;SDS011;2896;53.500;10.020;2022-09-13T10:38:23;7.20;;;1.77;;
5742;SDS011;2896;53.500;10.020;2022-09-13T10:40:54;3.90;;;1.80;;
5742;SDS011;2896;53.500;10.020;2022-09-13T10:43:22;14.37;;;1.57;;
5742;SDS011;2896;53.500;10.020;2022-09-13T10:45:52;5.30;;;1.30;;
5742;SDS011;2896;53.500;10.020;2022-09-13T10:48:20;6.90;;;1.50;;
5742;SDS011;2896;53.500;10.020;2022-09-13T10:50:59;9.63;;;1.50;;
5742;SDS011;2896;53.500;10.020;2022-09-13T10:53:32;6.67;;;1.63;;
5742;SDS011;2896;53.500;10.020;2022-09-13T10:56:00;4.83;;;1.40;;
5742;SDS011;2896;53.500;10.020;2022-09-13T10:58:27;9.70;;;1.67;;
5742;SDS011;2896;53.500;10.020;2022-09-13T11:01:16;4.10;;;1.40;;
5742;SDS011;2896;53.500;10.020;2022-09-13T11:04:06;11.73;;;1.20;;
5742;SDS011;2896;53.500;10.020;2022-09-13T11:07:00;7.40;;;1.73;;
5742;SDS011;2896;53.500;10.020;2022-09-13T11:09:38;7.47;;;1.70;;
5742;SDS011;2896;53.500;10.020;2022-09-13T11:12:13;6.63;;;1.57;;
5742;SDS011;2896;53.500;10.020;2022-09-13T11:14:52;3.20;;;1.47;;
5742;SDS011;2896;53.500;10.020;2022-09-13T11:17:27;4.40;;;1.63;;
5742;SDS011;2896;53.500;10.020;2022-09-13T11:20:10;3.87;;;1.60;;
5742;SDS011;2896;53.500;10.020;2022-09-13T11:22:48;3.57;;;1.40;;
5742;SDS011;2896;53.500;10.020;2022-09-13T11:25:27;8.27;;;1.70;;
5742;SDS011;2896;53.500;10.020;2022-09-13T11:28:04;7.93;;;1.40;;
5742;SDS011;2896;53.500;10.020;2022-09-13T11:30:40;9.43;;;1.93;;
5742;SDS011;2896;53.500;10.020;2022-09-13T11:33:23;10.40;;;1.63;;
5742;SDS011;2896;53.500;10.020;2022-09-13T11:36:08;8.93;;;1.93;;
5742;SDS011;2896;53.500;10.020;2022-09-13T11:38:45;5.13;;;1.40;;
5742;SDS011;2896;53.500;10.020;2022-09-13T11:41:23;13.37;;;2.00;;
5742;SDS011;2896;53.500;10.020;2022-09-13T11:44:01;5.23;;;1.50;;
5742;SDS011;2896;53.500;10.020;2022-09-13T11:46:44;2.33;;;1.27;;
5742;SDS011;2896;53.500;10.020;2022-09-13T11:49:28;8.83;;;1.60;;
5742;SDS011;2896;53.500;10.020;2022-09-13T11:52:20;10.20;;;1.77;;
5742;SDS011;2896;53.500;10.020;2022-09-13T11:54:58;5.90;;;2.10;;
5742;SDS011;2896;53.500;10.020;2022-09-13T11:57:33;3.17;;;1.23;;
5742;SDS011;2896;53.500;10.020;2022-09-13T12:00:04;4.57;;;1.60;;
5742;SDS011;2896;53.500;10.020;2022-09-13T12:02:41;3.10;;;1.33;;
5742;SDS011;2896;53.500;10.020;2022-09-13T12:05:12;11.00;;;2.23;;
5742;SDS011;2896;53.500;10.020;2022-09-13T12:07:47;4.00;;;1.27;;
5742;SDS011;2896;53.500;10.020;2022-09-13T12:10:19;4.50;;;1.40;;
5742;SDS011;2896;53.500;10.020;2022-09-13T12:12:50;8.30;;;1.40;;
5742;SDS011;2896;53.500;10.020;2022-09-13T12:15:20;9.30;;;1.63;;
5742;SDS011;2896;53.500;10.020;2022-09-13T12:17:51;8.63;;;1.67;;
5742;SDS011;2896;53.500;10.020;2022-09-13T12:20:28;9.87;;;1.90;;
5742;SDS011;2896;53.500;10.020;2022-09-13T12:23:00;7.00;;;1.27;;
5742;SDS011;2896;53.500;10.020;2022-09-13T12:25:31;6.83;;;1.50;;
5742;SDS011;2896;53.500;10.020;2022-09-13T12:28:05;3.00;;;1.37;;
5742;SDS011;2896;53.500;10.020;2022-09-13T12:30:38;5.40;;;1.23;;
5742;SDS011;2896;53.500;10.020;2022-09-13T12:33:10;4.87;;;1.23;;
5742;SDS011;2896;53.500;10.020;2022-09-13T12:35:41;8.43;;;1.40;;
5742;SDS011;2896;53.500;10.020;2022-09-13T12:38:22;7.63;;;1.47;;
5742;SDS011;2896;53.500;10.020;2022-09-13T12:41:02;10.53;;;2.40;;
5742;SDS011;2896;53.500;10.020;2022-09-13T12:44:03;6.30;;;1.70;;
5742;SDS011;2896;53.500;10.020;2022-09-13T12:46:57;7.03;;;1.33;;
5742;SDS011;2896;53.500;10.020;2022-09-13T12:49:47;7.80;;;2.10;;
5742;SDS011;2896;53.500;10.020;2022-09-13T12:52:29;5.37;;;1.60;;
5742;SDS011;2896;53.500;10.020;2022-09-13T12:58:09;11.37;;;2.53;;
5742;SDS011;2896;53.500;10.020;2022-09-13T13:00:48;6.67;;;1.90;;
5742;SDS011;2896;53.500;10.020;2022-09-13T13:03:36;14.00;;;1.93;;
5742;SDS011;2896;53.500;10.020;2022-09-13T13:06:14;5.17;;;1.80;;
5742;SDS011;2896;53.500;10.020;2022-09-13T13:08:54;6.67;;;1.63;;
5742;SDS011;2896;53.500;10.020;2022-09-13T13:11:24;4.40;;;1.50;;
5742;SDS011;2896;53.500;10.020;2022-09-13T13:13:55;4.77;;;1.40;;
5742;SDS011;2896;53.500;10.020;2022-09-13T13:16:25;9.37;;;1.87;;
5742;SDS011;2896;53.500;10.020;2022-09-13T13:18:54;7.77;;;1.33;;
5742;SDS011;2896;53.500;10.020;2022-09-13T13:21:24;8.63;;;2.13;;
5742;SDS011;2896;53.500;10.020;2022-09-13T13:26:58;13.63;;;2.00;;
5742;SDS011;2896;53.500;10.020;2022-09-13T13:29:27;12.53;;;2.20;;
5742;SDS011;2896;53.500;10.020;2022-09-13T13:32:04;7.23;;;1.70;;
5742;SDS011;2896;53.500;10.020;2022-09-13T13:34:40;14.53;;;2.03;;
5742;SDS011;2896;53.500;10.020;2022-09-13T13:37:24;8.23;;;2.00;;
5742;SDS011;2896;53.500;10.020;2022-09-13T13:45:57;8.10;;;1.77;;
5742;SDS011;2896;53.500;10.020;2022-09-13T13:48:48;4.60;;;2.17;;
5742;SDS011;2896;53.500;10.020;2022-09-13T13:51:19;7.90;;;1.67;;
5742;SDS011;2896;53.500;10.020;2022-09-13T13:53:51;4.40;;;1.33;;
5742;SDS011;2896;53.500;10.020;2022-09-13T13:59:15;2.47;;;1.50;;
5742;SDS011;2896;53.500;10.020;2022-09-13T14:01:49;7.40;;;2.03;;
5742;SDS011;2896;53.500;10.020;2022-09-13T14:10:16;10.20;;;2.50;;
5742;SDS011;2896;53.500;10.020;2022-09-13T14:12:51;7.93;;;1.47;;
5742;SDS011;2896;53.500;10.020;2022-09-13T14:15:33;9.17;;;1.70;;
5742;SDS011;2896;53.500;10.020;2022-09-13T14:18:16;3.50;;;1.80;;
5742;SDS011;2896;53.500;10.020;2022-09-13T14:21:03;8.90;;;1.77;;
5742;SDS011;2896;53.500;10.020;2022-09-13T14:23:42;13.33;;;2.33;;
5742;SDS011;2896;53.500;10.020;2022-09-13T14:26:09;3.97;;;1.77;;
5742;SDS011;2896;53.500;10.020;2022-09-13T14:28:37;10.77;;;2.40;;
5742;SDS011;2896;53.500;10.020;2022-09-13T14:31:04;11.37;;;1.97;;
5742;SDS011;2896;53.500;10.020;2022-09-13T14:33:33;15.53;;;1.80;;
5742;SDS011;2896;53.500;10.020;2022-09-13T14:36:03;10.03;;;1.83;;
5742;SDS011;2896;53.500;10.020;2022-09-13T14:38:31;5.90;;;1.90;;
5742;SDS011;2896;53.500;10.020;2022-09-13T14:41:01;5.00;;;1.63;;
5742;SDS011;2896;53.500;10.020;2022-09-13T14:43:36;8.37;;;2.20;;
5742;SDS011;2896;53.500;10.020;2022-09-13T14:46:04;10.10;;;1.90;;
5742;SDS011;2896;53.500;10.020;2022-09-13T14:48:37;12.33;;;1.67;;
5742;SDS011;2896;53.500;10.020;2022-09-13T14:51:07;9.00;;;2.30;;
5742;SDS011;2896;53.500;10.020;2022-09-13T14:53:42;10.43;;;2.10;;
5742;SDS011;2896;53.500;10.020;2022-09-13T14:56:12;10.40;;;1.73;;
5742;SDS011;2896;53.500;10.020;2022-09-13T14:58:43;6.53;;;2.00;;
5742;SDS011;2896;53.500;10.020;2022-09-13T15:01:14;6.37;;;2.03;;
5742;SDS011;2896;53.500;10.020;2022-09-13T15:03:45;6.77;;;2.27;;
5742;SDS011;2896;53.500;10.020;2022-09-13T15:06:20;10.73;;;2.17;;
5742;SDS011;2896;53.500;10.020;2022-09-13T15:08:49;9.63;;;1.93;;
5742;SDS011;2896;53.500;10.020;2022-09-13T15:11:28;12.13;;;1.40;;
5742;SDS011;2896;53.500;10.020;2022-09-13T15:16:52;10.40;;;1.73;;
5742;SDS011;2896;53.500;10.020;2022-09-13T15:19:29;8.03;;;2.10;;
5742;SDS011;2896;53.500;10.020;2022-09-13T15:22:01;25.87;;;2.33;;
5742;SDS011;2896;53.500;10.020;2022-09-13T15:24:41;12.73;;;2.30;;
5742;SDS011;2896;53.500;10.020;2022-09-13T15:27:15;12.17;;;1.87;;
5742;SDS011;2896;53.500;10.020;2022-09-13T15:29:54;11.13;;;1.90;;
5742;SDS011;2896;53.500;10.020;2022-09-13T15:32:23;11.17;;;2.50;;
5742;SDS011;2896;53.500;10.020;2022-09-13T15:34:58;9.03;;;1.90;;
5742;SDS011;2896;53.500;10.020;2022-09-13T15:37:30;8.40;;;1.73;;
5742;SDS011;2896;53.500;10.020;2022-09-13T15:40:13;7.90;;;2.10;;
5742;SDS011;2896;53.500;10.020;2022-09-13T15:42:45;12.47;;;1.80;;
5742;SDS011;2896;53.500;10.020;2022-09-13T15:45:16;10.53;;;2.53;;
5742;SDS011;2896;53.500;10.020;2022-09-13T15:47:44;11.13;;;2.23;;
5742;SDS011;2896;53.500;10.020;2022-09-13T15:50:19;8.30;;;1.80;;